< < Back
Terminal Aerodrome Forecast


Current Version              Previous Versions:   1  2  3  4  5  6  7  8  9  

Terminal Aerodrome Forecast

969
FTUS42 KFFC 312338
TAFCSG
TAF
KCSG 312338Z 0100/0124 11006KT P6SM SCT060
     FM010600 00000KT P6SM SCT120
     FM011000 14004KT P6SM FEW020 SCT120
     FM011600 13004KT P6SM VCSH SCT035=

Latest METAR

617
SAUS70 KWBC 010300 RRK
MTRCSG
METAR KCSG 010251Z AUTO 09003KT 10SM OVC085 28/20 A2990 RMK AO2 SLP118
T02830200 51014


USA.gov is the U.S. government's official web portal to all federal, state and local government web resources and services.